Main page
METAR-TAF:

METAR-TAF

Airports :

Biarritz Pays Basque Airport

Biarritz, France

latitude: 43-28N, longitude: 001-32W, elevation: 75 m

Current weather observation

The report was made 30 minutes ago, at 03:30 UTC
Wind 5 kt from the East/Northeast
Temperature 11°C
Humidity 87%
Pressure 1031 hPa
Visibility: 9000 m
Few clouds at a height of 1600 ft
Overcast at a height of 3000 ft

METAR: LFBZ 270330Z AUTO 07005KT 9000 FEW016 OVC030 11/09 Q1031 TEMPO BKN005

Time: 05:00 (04:00 UTC)

Forecast

The report was made 5 hours and 0 minutes ago, at 23:00 UTC
Forecast valid from 27 at 00 UTC to 27 at 24 UTC
Wind 5 kt from variable directions
Visibility 10 km or more
Broken clouds at a height of 2000 ft
Probability 40%
from 27 at 00 UTC to 27 at 06 UTC
Broken clouds at a height of 500 ft

TAF: LFBZ 262300Z 2700/2724 VRB05KT 9999 BKN020 PROB40 2700/2706 BKN005

Weather observations and forecasts of more than 4000 airports (METAR and TAF reports).

The available stations are represented by yellow and red dots on the map.

Hover mouse over dot to see the name of the station.

Then click to see weather observations and forecasts.

To change the map : click on the green buttons with a black cross to zoom in, on the green button with a dash to zoom out, or on the green arrows for adjacent maps.


METAR-TAF: